createdAt,value
2022-11-08T00:00:49.390Z,5.00
2022-11-08T00:03:17.039Z,5.80
2022-11-08T00:06:02.951Z,5.07
2022-11-08T00:08:48.543Z,4.70
2022-11-08T00:11:34.925Z,4.50
2022-11-08T00:14:03.226Z,5.00
2022-11-08T00:16:30.771Z,5.27
2022-11-08T00:18:58.344Z,5.97
2022-11-08T00:21:25.884Z,5.97
2022-11-08T00:23:53.423Z,6.93
2022-11-08T00:26:21.760Z,6.43
2022-11-08T00:28:49.292Z,6.40
2022-11-08T00:31:16.824Z,8.10
2022-11-08T00:33:44.502Z,7.40
2022-11-08T00:36:12.042Z,7.17
2022-11-08T00:38:43.285Z,6.87
2022-11-08T00:41:11.610Z,6.73
2022-11-08T00:43:39.131Z,6.87
2022-11-08T00:46:06.665Z,6.97
2022-11-08T00:48:34.250Z,6.50
2022-11-08T00:51:02.535Z,6.80
2022-11-08T00:53:30.068Z,7.03
2022-11-08T00:56:04.426Z,7.33
2022-11-08T00:58:31.970Z,6.77
2022-11-08T01:00:59.561Z,6.97
2022-11-08T01:03:27.817Z,6.97
2022-11-08T01:05:55.344Z,7.57
2022-11-08T01:08:23.675Z,7.03
2022-11-08T01:10:51.256Z,7.90
2022-11-08T01:13:18.795Z,7.13
2022-11-08T01:15:46.377Z,9.43
2022-11-08T01:18:13.905Z,8.73
2022-11-08T01:20:41.427Z,8.20
2022-11-08T01:23:08.978Z,7.60
2022-11-08T01:25:43.481Z,7.23
2022-11-08T01:28:11.013Z,7.93
2022-11-08T01:30:38.588Z,7.47
2022-11-08T01:33:06.130Z,6.57
2022-11-08T01:35:33.665Z,7.47
2022-11-08T01:38:01.180Z,7.60
2022-11-08T01:40:29.509Z,7.40
2022-11-08T01:42:57.060Z,6.80
2022-11-08T01:45:54.949Z,6.77
2022-11-08T01:48:22.503Z,6.80
2022-11-08T01:50:50.030Z,7.03
2022-11-08T01:53:17.614Z,7.00
2022-11-08T01:55:45.157Z,7.07
2022-11-08T01:58:15.920Z,7.00
2022-11-08T02:00:43.160Z,6.20
2022-11-08T02:03:10.684Z,6.70
2022-11-08T02:05:38.209Z,6.10
2022-11-08T02:08:11.370Z,6.10
2022-11-08T02:10:38.902Z,5.90
2022-11-08T02:13:09.592Z,6.17
2022-11-08T02:15:34.777Z,5.63
2022-11-08T02:18:02.313Z,5.40
2022-11-08T02:20:29.878Z,5.63
2022-11-08T02:22:57.443Z,6.00
2022-11-08T02:25:24.966Z,9.57
2022-11-08T02:27:52.502Z,5.83
2022-11-08T02:30:20.853Z,5.30
2022-11-08T02:32:48.388Z,5.70
2022-11-08T02:35:15.933Z,4.87
2022-11-08T02:37:43.476Z,4.90
2022-11-08T02:40:11.112Z,4.77
2022-11-08T02:42:38.634Z,4.87
2022-11-08T02:45:06.435Z,5.40
2022-11-08T02:47:33.979Z,5.07
2022-11-08T02:50:01.586Z,4.50
2022-11-08T02:52:29.080Z,5.62
2022-11-08T02:54:56.624Z,5.33
2022-11-08T02:57:24.139Z,4.93
2022-11-08T02:59:52.480Z,4.47
2022-11-08T03:02:20.124Z,4.90
2022-11-08T03:04:47.551Z,4.23
2022-11-08T03:07:15.106Z,4.33
2022-11-08T03:09:43.397Z,4.00
2022-11-08T03:12:10.923Z,4.27
2022-11-08T03:14:39.844Z,4.43
2022-11-08T03:17:07.369Z,4.33
2022-11-08T03:19:35.672Z,3.93
2022-11-08T03:22:03.248Z,3.90
2022-11-08T03:24:30.782Z,3.90
2022-11-08T03:26:59.145Z,3.93
2022-11-08T03:29:27.466Z,3.30
2022-11-08T03:31:55.011Z,3.30
2022-11-08T03:34:22.536Z,3.17
2022-11-08T03:36:50.099Z,3.23
2022-11-08T03:39:18.401Z,3.20
2022-11-08T03:41:45.966Z,3.33
2022-11-08T03:44:13.474Z,3.03
2022-11-08T03:46:41.016Z,3.00
2022-11-08T03:49:08.563Z,3.83
2022-11-08T03:51:36.127Z,4.12
2022-11-08T03:54:03.660Z,3.27
2022-11-08T03:56:31.185Z,2.90
2022-11-08T03:58:59.518Z,2.60
2022-11-08T04:01:27.135Z,2.90
2022-11-08T04:03:54.568Z,2.43
2022-11-08T04:06:22.129Z,3.20
2022-11-08T04:08:49.658Z,2.47
2022-11-08T04:11:35.161Z,3.40
2022-11-08T04:14:20.940Z,2.70
2022-11-08T04:16:48.617Z,2.80
2022-11-08T04:19:34.767Z,3.25
2022-11-08T04:22:02.320Z,2.70
2022-11-08T04:24:29.845Z,2.53
2022-11-08T04:26:58.158Z,2.63
2022-11-08T04:29:26.119Z,2.20
2022-11-08T04:31:53.663Z,2.10
2022-11-08T04:34:21.199Z,2.10
2022-11-08T04:36:48.749Z,2.23
2022-11-08T04:39:16.285Z,2.10
2022-11-08T04:41:43.813Z,2.33
2022-11-08T04:44:11.361Z,2.30
2022-11-08T04:46:38.919Z,2.20
2022-11-08T04:49:06.451Z,2.10
2022-11-08T04:51:34.778Z,2.77
2022-11-08T04:54:02.309Z,1.97
2022-11-08T04:56:29.824Z,1.83
2022-11-08T04:58:57.371Z,2.20
2022-11-08T05:01:24.979Z,2.60
2022-11-08T05:03:52.417Z,2.30
2022-11-08T05:06:20.379Z,1.87
2022-11-08T05:08:47.860Z,2.10
2022-11-08T05:11:18.902Z,2.00
2022-11-08T05:13:46.486Z,2.10
2022-11-08T05:16:16.522Z,2.42
2022-11-08T05:18:44.047Z,2.13
2022-11-08T05:21:29.345Z,2.10
2022-11-08T05:23:56.869Z,1.67
2022-11-08T05:26:25.163Z,1.77
2022-11-08T05:28:53.346Z,2.27
2022-11-08T05:31:20.861Z,2.13
2022-11-08T05:33:48.398Z,2.27
2022-11-08T05:36:15.969Z,2.17
2022-11-08T05:38:43.521Z,1.97
2022-11-08T05:41:11.030Z,2.40
2022-11-08T05:43:39.520Z,2.43
2022-11-08T05:46:07.044Z,2.33
2022-11-08T05:48:35.347Z,2.00
2022-11-08T05:51:02.932Z,2.10
2022-11-08T05:53:30.505Z,2.10
2022-11-08T05:56:00.763Z,2.07
2022-11-08T05:58:28.302Z,2.27
2022-11-08T06:01:07.680Z,2.90
2022-11-08T06:03:35.286Z,4.25
2022-11-08T06:06:08.879Z,3.27
2022-11-08T06:08:36.407Z,2.20
2022-11-08T06:11:03.958Z,1.90
2022-11-08T06:13:31.819Z,1.60
2022-11-08T06:16:02.614Z,1.80
2022-11-08T06:18:30.180Z,2.30
2022-11-08T06:21:00.685Z,3.22
2022-11-08T06:23:28.235Z,1.80
2022-11-08T06:25:55.796Z,1.97
2022-11-08T06:28:23.328Z,1.80
2022-11-08T06:30:50.853Z,1.90
2022-11-08T06:33:19.734Z,3.93
2022-11-08T06:35:47.538Z,2.80
2022-11-08T06:38:15.063Z,1.73
2022-11-08T06:40:43.396Z,2.40
2022-11-08T06:43:13.798Z,1.60
2022-11-08T06:45:39.214Z,2.80
2022-11-08T06:48:06.847Z,2.10
2022-11-08T06:50:35.149Z,2.00
2022-11-08T06:53:05.539Z,1.93
2022-11-08T06:55:33.153Z,1.90
2022-11-08T06:58:00.687Z,1.97
2022-11-08T07:00:28.212Z,2.57
2022-11-08T07:02:55.946Z,2.13
2022-11-08T07:05:24.062Z,1.90
2022-11-08T07:07:52.364Z,2.57
2022-11-08T07:10:22.768Z,2.80
2022-11-08T07:12:51.049Z,2.77
2022-11-08T07:15:19.330Z,2.50
2022-11-08T07:17:46.915Z,2.57
2022-11-08T07:20:14.489Z,2.13
2022-11-08T07:22:42.015Z,2.30
2022-11-08T07:25:09.588Z,2.65
2022-11-08T07:27:37.134Z,2.87
2022-11-08T07:30:04.647Z,2.87
2022-11-08T07:32:32.221Z,2.43
2022-11-08T07:34:59.767Z,2.80
2022-11-08T07:37:27.291Z,2.63
2022-11-08T07:39:54.856Z,2.55
2022-11-08T07:42:22.391Z,2.47
2022-11-08T07:44:49.934Z,2.60
2022-11-08T07:47:17.814Z,2.47
2022-11-08T07:49:45.351Z,2.30
2022-11-08T07:52:13.647Z,2.50
2022-11-08T07:54:41.226Z,3.13
2022-11-08T07:57:08.762Z,2.70
2022-11-08T07:59:36.298Z,2.43
2022-11-08T08:02:04.691Z,1.97
2022-11-08T08:04:32.169Z,2.73
2022-11-08T08:06:59.725Z,2.30
2022-11-08T08:09:27.297Z,2.10
2022-11-08T08:11:54.821Z,2.30
2022-11-08T08:14:23.115Z,1.67
2022-11-08T08:16:50.689Z,2.43
2022-11-08T08:19:18.223Z,2.20
2022-11-08T08:21:45.747Z,2.03
2022-11-08T08:24:13.322Z,2.43
2022-11-08T08:26:41.617Z,2.50
2022-11-08T08:29:09.139Z,1.93
2022-11-08T08:31:36.725Z,2.00
2022-11-08T08:34:05.066Z,2.50
2022-11-08T08:36:32.604Z,2.27
2022-11-08T08:39:00.225Z,2.33
2022-11-08T08:41:27.689Z,2.70
2022-11-08T08:43:55.216Z,2.57
2022-11-08T08:46:22.828Z,2.33
2022-11-08T08:48:50.325Z,2.40
2022-11-08T08:51:17.849Z,3.30
2022-11-08T08:53:45.423Z,2.80
2022-11-08T08:56:12.947Z,1.87
2022-11-08T08:58:40.567Z,1.93
2022-11-08T09:03:35.678Z,1.50
2022-11-08T09:06:03.231Z,1.87
2022-11-08T09:08:30.798Z,2.30
2022-11-08T09:10:58.322Z,1.80
2022-11-08T09:13:25.846Z,2.03
2022-11-08T09:15:53.458Z,1.60
2022-11-08T09:18:21.026Z,1.73
2022-11-08T09:20:48.511Z,2.07
2022-11-08T09:23:17.198Z,2.00
2022-11-08T09:25:44.370Z,1.90
2022-11-08T09:28:12.669Z,2.13
2022-11-08T09:30:40.253Z,2.10
2022-11-08T09:33:07.889Z,2.00
2022-11-08T09:35:35.321Z,1.63
2022-11-08T09:38:02.908Z,1.87
2022-11-08T09:40:33.454Z,1.80
2022-11-08T09:43:07.055Z,2.00
2022-11-08T09:45:46.859Z,1.90
2022-11-08T09:48:15.150Z,2.17
2022-11-08T09:50:42.725Z,1.70
2022-11-08T09:53:17.594Z,1.67
2022-11-08T09:55:57.063Z,1.97
2022-11-08T09:58:30.859Z,1.60
2022-11-08T10:00:59.174Z,1.87
2022-11-08T10:03:26.716Z,2.10
2022-11-08T10:06:15.430Z,1.77
2022-11-08T10:08:49.132Z,1.90
2022-11-08T10:11:31.826Z,1.67
2022-11-08T10:14:17.743Z,2.08
2022-11-08T10:16:49.081Z,3.00
2022-11-08T10:19:38.246Z,2.40
2022-11-08T10:22:14.564Z,1.70
2022-11-08T10:24:44.899Z,1.73
2022-11-08T10:27:25.156Z,1.73
2022-11-08T10:29:52.686Z,1.98
2022-11-08T10:32:23.246Z,2.00
2022-11-08T10:34:56.353Z,1.77
2022-11-08T10:37:23.885Z,2.37
2022-11-08T10:39:57.389Z,1.95
2022-11-08T10:42:30.652Z,2.00
2022-11-08T10:44:58.182Z,2.10
2022-11-08T10:47:25.724Z,1.97
2022-11-08T10:49:53.310Z,2.15
2022-11-08T10:52:39.895Z,2.17
2022-11-08T10:55:07.447Z,1.80
2022-11-08T10:57:37.921Z,2.20
2022-11-08T11:00:21.392Z,1.97
2022-11-08T11:02:51.823Z,1.87
2022-11-08T11:05:19.360Z,1.70
2022-11-08T11:08:05.315Z,1.83
2022-11-08T11:10:36.649Z,2.10
2022-11-08T11:13:07.138Z,1.80
2022-11-08T11:15:34.722Z,1.67
2022-11-08T11:18:02.259Z,1.73
2022-11-08T11:20:29.780Z,2.17
2022-11-08T11:22:57.364Z,1.97
2022-11-08T11:25:24.898Z,1.73
2022-11-08T11:27:54.848Z,2.10
2022-11-08T11:30:25.089Z,2.07
2022-11-08T11:33:01.674Z,2.33
2022-11-08T11:35:35.009Z,2.03
2022-11-08T11:38:02.542Z,2.20
2022-11-08T11:40:36.153Z,2.53
2022-11-08T11:43:07.182Z,1.87
2022-11-08T11:45:41.324Z,1.60
2022-11-08T11:48:11.960Z,2.10
2022-11-08T11:50:39.493Z,1.60
2022-11-08T11:53:07.805Z,2.20
2022-11-08T11:55:53.999Z,1.70
2022-11-08T11:58:24.232Z,1.80
2022-11-08T12:00:51.759Z,2.20
2022-11-08T12:03:28.065Z,1.80
2022-11-08T12:06:10.652Z,2.17
2022-11-08T12:08:53.244Z,2.00
2022-11-08T12:11:54.699Z,2.00
2022-11-08T12:14:24.971Z,1.80
2022-11-08T12:17:01.208Z,2.00
2022-11-08T12:19:44.035Z,2.30
2022-11-08T12:22:23.413Z,1.73
2022-11-08T12:24:57.476Z,2.10
2022-11-08T12:27:36.787Z,1.80
2022-11-08T12:30:16.296Z,1.60
2022-11-08T12:32:59.101Z,1.87
2022-11-08T12:35:35.969Z,1.60
2022-11-08T12:38:12.760Z,2.03
2022-11-08T12:40:48.961Z,1.47
2022-11-08T12:43:28.467Z,1.70
2022-11-08T12:46:07.807Z,1.40
2022-11-08T12:48:51.129Z,1.63
2022-11-08T12:51:21.545Z,1.77
2022-11-08T12:54:04.138Z,1.70
2022-11-08T12:56:40.383Z,1.70
2022-11-08T12:59:26.470Z,1.80
2022-11-08T13:01:54.043Z,1.60
2022-11-08T13:04:33.618Z,1.43
2022-11-08T13:07:01.280Z,1.27
2022-11-08T13:09:41.548Z,1.07
2022-11-08T13:12:15.385Z,1.20
2022-11-08T13:14:42.918Z,1.50
2022-11-08T13:17:16.655Z,1.30
2022-11-08T13:19:47.599Z,1.30
2022-11-08T13:22:30.395Z,0.80
2022-11-08T13:25:00.479Z,1.27
2022-11-08T13:27:30.978Z,1.00
2022-11-08T13:30:01.171Z,0.87
2022-11-08T13:32:43.641Z,1.20
2022-11-08T13:35:26.085Z,1.40
2022-11-08T13:37:59.350Z,0.77
2022-11-08T13:40:26.876Z,1.03
2022-11-08T13:43:00.082Z,0.90
2022-11-08T13:45:30.431Z,1.20
2022-11-08T13:48:01.710Z,1.23
2022-11-08T13:50:29.240Z,1.30
2022-11-08T13:53:19.386Z,1.47
2022-11-08T13:56:04.998Z,1.30
2022-11-08T13:58:33.317Z,1.40
2022-11-08T14:01:00.976Z,1.20
2022-11-08T14:03:34.098Z,1.60
2022-11-08T14:06:07.777Z,2.03
2022-11-08T14:09:09.460Z,1.30
2022-11-08T14:11:37.032Z,1.40
2022-11-08T14:14:16.532Z,1.50
2022-11-08T14:17:07.902Z,1.20
2022-11-08T14:19:38.943Z,1.10
2022-11-08T14:22:06.437Z,1.60
2022-11-08T14:24:34.298Z,1.30
2022-11-08T14:27:01.830Z,1.50
2022-11-08T14:29:29.357Z,1.10
2022-11-08T14:32:02.623Z,1.30
2022-11-08T14:34:32.884Z,1.83
2022-11-08T14:37:00.409Z,0.90
2022-11-08T14:39:33.738Z,1.55
2022-11-08T14:42:01.279Z,1.07
2022-11-08T14:44:28.823Z,1.30
2022-11-08T14:46:56.398Z,1.60
2022-11-08T14:49:23.931Z,1.27
2022-11-08T14:52:09.995Z,1.27
2022-11-08T14:54:37.533Z,1.20
2022-11-08T14:57:05.066Z,1.40
2022-11-08T14:59:32.651Z,1.13
2022-11-08T15:02:00.195Z,1.58
2022-11-08T15:04:27.733Z,1.45
2022-11-08T15:06:55.330Z,1.60
2022-11-08T15:09:22.821Z,1.50
2022-11-08T15:11:52.739Z,1.77
2022-11-08T15:14:17.909Z,1.50
2022-11-08T15:16:45.486Z,1.80
2022-11-08T15:19:31.775Z,1.47
2022-11-08T15:21:59.309Z,1.77
2022-11-08T15:24:39.123Z,1.77
2022-11-08T15:27:06.669Z,1.83
2022-11-08T15:29:49.623Z,1.60
2022-11-08T15:32:17.137Z,1.77
2022-11-08T15:34:44.680Z,2.47
2022-11-08T15:37:34.261Z,1.97
2022-11-08T15:40:02.705Z,1.80
2022-11-08T15:42:30.108Z,1.67
2022-11-08T15:44:57.692Z,1.67
2022-11-08T15:47:43.207Z,1.30
2022-11-08T15:50:25.846Z,2.27
2022-11-08T15:52:54.208Z,1.60
2022-11-08T15:55:21.732Z,1.60
2022-11-08T15:57:49.317Z,1.40
2022-11-08T16:00:22.581Z,1.57
2022-11-08T16:02:50.115Z,1.85
2022-11-08T16:05:23.293Z,2.00
2022-11-08T16:07:50.828Z,1.63
2022-11-08T16:10:18.355Z,1.80
2022-11-08T16:12:45.918Z,1.60
2022-11-08T16:15:13.446Z,1.73
2022-11-08T16:17:40.987Z,2.07
2022-11-08T16:20:32.634Z,1.80
2022-11-08T16:23:00.159Z,1.90
2022-11-08T16:25:28.452Z,1.80
2022-11-08T16:27:58.705Z,2.00
2022-11-08T16:30:26.232Z,2.13
2022-11-08T16:32:53.773Z,2.20
2022-11-08T16:35:22.115Z,2.30
2022-11-08T16:37:49.661Z,1.90
2022-11-08T16:40:19.819Z,2.10
2022-11-08T16:42:47.389Z,4.20
2022-11-08T16:45:15.692Z,2.50
2022-11-08T16:47:43.217Z,2.80
2022-11-08T16:50:14.581Z,2.67
2022-11-08T16:52:42.108Z,3.10
2022-11-08T16:55:12.739Z,2.50
2022-11-08T16:57:37.244Z,3.30
2022-11-08T17:00:05.566Z,3.50
2022-11-08T17:02:33.115Z,2.80
2022-11-08T17:05:00.677Z,2.13
2022-11-08T17:07:28.203Z,2.80
2022-11-08T17:09:56.494Z,2.43
2022-11-08T17:12:24.837Z,2.30
2022-11-08T17:14:52.409Z,2.43
2022-11-08T17:17:19.905Z,2.20
2022-11-08T17:19:48.080Z,3.33
2022-11-08T17:22:15.614Z,2.23
2022-11-08T17:24:43.930Z,3.00
2022-11-08T17:27:11.501Z,2.30
2022-11-08T17:29:39.055Z,3.00
2022-11-08T17:32:06.600Z,2.70
2022-11-08T17:34:34.197Z,2.70
2022-11-08T17:37:01.734Z,2.67
2022-11-08T17:39:29.273Z,2.20
2022-11-08T17:41:56.859Z,2.80
2022-11-08T17:44:24.393Z,2.30
2022-11-08T17:46:51.957Z,2.47
2022-11-08T17:49:19.522Z,2.70
2022-11-08T17:51:47.057Z,2.40
2022-11-08T17:54:14.590Z,2.50
2022-11-08T17:56:42.933Z,2.40
2022-11-08T17:59:10.458Z,2.23
2022-11-08T18:01:38.120Z,2.13
2022-11-08T18:04:05.563Z,2.20
2022-11-08T18:06:33.141Z,2.57
2022-11-08T18:09:01.409Z,2.07
2022-11-08T18:11:28.973Z,1.97
2022-11-08T18:13:56.552Z,2.23
2022-11-08T18:16:24.092Z,2.20
2022-11-08T18:18:51.672Z,2.10
2022-11-08T18:21:19.201Z,1.90
2022-11-08T18:23:46.725Z,2.27
2022-11-08T18:26:14.293Z,2.60
2022-11-08T18:28:42.593Z,2.30
2022-11-08T18:31:10.127Z,2.10
2022-11-08T18:33:38.745Z,2.70
2022-11-08T18:36:09.313Z,2.33
2022-11-08T18:38:36.848Z,2.20
2022-11-08T18:41:04.421Z,2.50
2022-11-08T18:43:31.969Z,2.53
2022-11-08T18:46:04.984Z,2.10
2022-11-08T18:48:32.549Z,2.20
2022-11-08T18:51:00.101Z,2.50
2022-11-08T18:53:27.631Z,2.13
2022-11-08T18:55:55.213Z,2.17
2022-11-08T18:58:22.740Z,1.90
2022-11-08T19:00:50.263Z,1.90
2022-11-08T19:03:19.072Z,2.20
2022-11-08T19:05:49.211Z,2.83
2022-11-08T19:08:16.735Z,2.30
2022-11-08T19:10:52.801Z,1.40
2022-11-08T19:13:21.532Z,1.00
2022-11-08T19:16:03.792Z,1.10
2022-11-08T19:18:31.313Z,1.30
2022-11-08T19:20:58.860Z,1.33
2022-11-08T19:23:26.432Z,1.87
2022-11-08T19:25:53.963Z,2.47
2022-11-08T19:28:21.494Z,2.73
2022-11-08T19:30:54.355Z,2.20
2022-11-08T19:33:22.646Z,3.00
2022-11-08T19:35:50.172Z,1.90
2022-11-08T19:38:18.098Z,1.70
2022-11-08T19:40:45.260Z,1.57
2022-11-08T19:43:12.796Z,1.40
2022-11-08T19:45:40.368Z,1.40
2022-11-08T19:48:07.920Z,1.77
2022-11-08T19:50:35.429Z,2.17
2022-11-08T19:53:06.736Z,1.73
2022-11-08T19:55:30.567Z,1.80
2022-11-08T19:57:58.883Z,1.87
2022-11-08T20:00:26.722Z,2.10
2022-11-08T20:02:54.255Z,1.97
2022-11-08T20:05:22.596Z,1.80
2022-11-08T20:07:50.191Z,1.80
2022-11-08T20:10:18.482Z,1.73
2022-11-08T20:12:46.026Z,2.00
2022-11-08T20:15:13.592Z,2.07
2022-11-08T20:17:41.897Z,2.12
2022-11-08T20:20:09.431Z,2.07
2022-11-08T20:22:37.763Z,2.40
2022-11-08T20:25:05.305Z,2.63
2022-11-08T20:27:32.830Z,2.00
2022-11-08T20:30:00.401Z,2.00
2022-11-08T20:32:27.919Z,2.63
2022-11-08T20:34:55.447Z,2.53
2022-11-08T20:37:23.009Z,2.27
2022-11-08T20:39:50.534Z,3.03
2022-11-08T20:42:18.068Z,3.33
2022-11-08T20:44:46.992Z,3.63
2022-11-08T20:47:14.576Z,3.87
2022-11-08T20:49:42.080Z,4.03
2022-11-08T20:52:10.426Z,3.97
2022-11-08T20:54:43.619Z,3.87
2022-11-08T20:57:05.473Z,3.60
2022-11-08T20:59:33.806Z,4.70
2022-11-08T21:02:01.394Z,4.43
2022-11-08T21:04:28.864Z,3.70
2022-11-08T21:07:50.924Z,3.60
2022-11-08T21:09:42.247Z,4.00
2022-11-08T21:11:52.266Z,3.57
2022-11-08T21:14:20.667Z,4.43
2022-11-08T21:17:19.762Z,3.00
2022-11-08T21:19:16.545Z,3.47
2022-11-08T21:21:44.069Z,3.77
2022-11-08T21:24:11.594Z,4.33
2022-11-08T21:26:39.888Z,3.07
2022-11-08T21:29:07.766Z,3.07
2022-11-08T21:31:35.292Z,2.10
2022-11-08T21:34:03.592Z,2.80
2022-11-08T21:36:31.149Z,3.70
2022-11-08T21:38:58.720Z,2.37
2022-11-08T21:41:26.249Z,2.70
2022-11-08T21:43:54.583Z,2.50
2022-11-08T21:46:22.128Z,2.33
2022-11-08T21:48:55.250Z,2.50
2022-11-08T21:51:22.807Z,3.47
2022-11-08T21:53:56.362Z,3.20
2022-11-08T21:56:23.706Z,3.10
2022-11-08T21:58:51.284Z,2.67
2022-11-08T22:01:18.869Z,2.33
2022-11-08T22:03:47.117Z,2.20
2022-11-08T22:06:14.722Z,2.20
2022-11-08T22:08:42.256Z,2.42
2022-11-08T22:11:09.793Z,3.90
2022-11-08T22:13:37.355Z,2.30
2022-11-08T22:16:04.958Z,2.20
2022-11-08T22:21:18.569Z,2.40
2022-11-08T22:23:46.104Z,2.20
2022-11-08T22:26:13.628Z,2.10
2022-11-08T22:28:41.184Z,1.83
2022-11-08T22:31:08.707Z,1.80
2022-11-08T22:33:36.240Z,2.00
2022-11-08T22:36:04.574Z,2.40
2022-11-08T22:38:32.270Z,2.47
2022-11-08T22:41:00.564Z,2.47
2022-11-08T22:43:28.154Z,1.83
2022-11-08T22:45:55.690Z,1.67
2022-11-08T22:48:23.224Z,1.87
2022-11-08T22:50:51.556Z,1.40
2022-11-08T22:53:19.388Z,1.80
2022-11-08T22:55:46.637Z,1.87
2022-11-08T22:58:14.211Z,1.70
2022-11-08T23:01:09.688Z,1.80
2022-11-08T23:03:38.000Z,1.90
2022-11-08T23:06:05.537Z,1.83
2022-11-08T23:08:33.071Z,1.80
2022-11-08T23:11:18.962Z,1.93
2022-11-08T23:14:04.738Z,1.90
2022-11-08T23:16:32.284Z,2.30
2022-11-08T23:19:18.170Z,2.17
2022-11-08T23:22:03.980Z,2.80
2022-11-08T23:24:31.520Z,2.87
2022-11-08T23:27:16.953Z,2.63
2022-11-08T23:30:02.661Z,2.57
2022-11-08T23:32:30.214Z,2.60
2022-11-08T23:34:57.739Z,2.80
2022-11-08T23:37:26.034Z,3.20
2022-11-08T23:40:11.665Z,2.67
2022-11-08T23:42:56.991Z,2.80
2022-11-08T23:45:24.547Z,4.23
2022-11-08T23:47:52.089Z,13.13
2022-11-08T23:50:20.386Z,6.03
2022-11-08T23:52:47.929Z,4.40
2022-11-08T23:55:16.234Z,3.70
2022-11-08T23:57:43.765Z,5.10
